Saturday, September 22, 2018, 9:19 AM EDT
Back to Local

KTTN, Trenton Mercer County Airport

Location: Trenton, NJ, United States Lat: 40.283
Local Time: 9:19 AM EDT (13:19 GMT) Lon: -74.817
Time Zone: US/Eastern Elev: 213 ft

Show me the last for .
Show Decoded

2018-09-22 08:53 METAR KTTN 221253Z 01012G15KT 10SM CLR 23/16 A3008 RMK AO2 SLP181 T02330156 =
2018-09-22 07:53 METAR KTTN 221153Z 34009KT 10SM FEW017 FEW026 23/19 A3006 RMK AO2 SLP172 60000
                 T02280194 10233 20222 53028 =
2018-09-22 06:53 METAR KTTN 221053Z 29004KT 10SM CLR 23/21 A3002 RMK AO2 RAE05 SLP159 P0000
                 T02280206 =
2018-09-22 05:53 METAR KTTN 220953Z 27005KT 10SM -RA FEW040 FEW075 SCT100 23/21 A3000 RMK AO2
                 RAB07E20B48 SLP153 P0000 T02280206 =
2018-09-22 04:53 METAR KTTN 220853Z AUTO 24004KT 10SM SCT016 23/21 A2997 RMK AO2 SLP143 60000
                 T02280206 55001 =
2018-09-22 04:41 METAR KTTN 220841Z AUTO 22003KT 10SM BKN017 BKN100 23/21 A2997 RMK AO2 T02280206
                 =
2018-09-22 03:53 METAR KTTN 220753Z AUTO 23004KT 10SM FEW120 23/21 A2997 RMK AO2 RAB37E49 SLP141
                 P0000 T02280206 =
2018-09-22 03:05 METAR KTTN 220705Z AUTO 22007KT 10SM FEW016 SCT025 BKN110 23/21 A2997 RMK AO2
                 T02330206 =
2018-09-22 02:53 METAR KTTN 220653Z AUTO 23007KT 10SM BKN016 BKN025 23/21 A2997 RMK AO2 SLP142
                 T02330206 =
2018-09-22 01:53 METAR KTTN 220553Z AUTO 24007KT 10SM BKN016 OVC022 23/20 A2998 RMK AO2 SLP144
                 T02330200 10233 20217 55016 =
2018-09-22 00:53 METAR KTTN 220453Z AUTO 21011KT 10SM OVC024 23/19 A2998 RMK AO2 SLP144 T02280194
                 402440189 =
2018-09-21 23:53 METAR KTTN 220353Z AUTO 19007KT 10SM OVC027 22/19 A3000 RMK AO2 SLP152 T02220194
                 =
2018-09-21 22:53 METAR KTTN 220253Z AUTO 19006KT 10SM OVC029 22/19 A3002 RMK AO2 SLP160 T02170189
                 50005 =
2018-09-21 22:44 METAR KTTN 220244Z AUTO 20005KT 10SM OVC029 22/19 A3003 RMK AO2 T02170189 =
2018-09-21 21:53 METAR KTTN 220153Z 18006KT 10SM OVC032 22/18 A3004 RMK AO2 SLP164 T02220183 =
2018-09-21 20:53 METAR KTTN 220053Z 20008KT 10SM OVC031 22/18 A3003 RMK AO2 SLP162 T02220183 =
2018-09-21 19:53 METAR KTTN 212353Z 18008KT 10SM OVC032 23/19 A3001 RMK AO2 SLP155 T02280189
                 10244 20228 56022 =
2018-09-21 19:01 METAR KTTN 212301Z 20009G14KT 10SM FEW027 OVC033 23/18 A3003 RMK AO2 T02330183 =
2018-09-21 18:53 METAR KTTN 212253Z 20008KT 10SM BKN027 OVC031 23/18 A3003 RMK AO2 SLP163
                 T02330183 =
2018-09-21 17:53 METAR KTTN 212153Z 19006KT 10SM OVC026 23/19 A3005 RMK AO2 SLP168 T02330189 =
2018-09-21 17:13 METAR KTTN 212113Z 21008KT 10SM OVC029 23/18 A3007 RMK AO2 T02330183 =
2018-09-21 16:53 METAR KTTN 212053Z 20008KT 10SM OVC031 24/18 A3007 RMK AO2 SLP177 T02390178
                 56025 =
2018-09-21 15:53 METAR KTTN 211953Z 18011KT 10SM SCT031 BKN038 OVC045 24/19 A3009 RMK AO2 SLP183
                 T02440189 =
2018-09-21 15:43 METAR KTTN 211943Z 19008KT 10SM BKN031 BKN038 OVC050 24/18 A3009 RMK AO2
                 T02390183 =
2018-09-21 15:22 METAR KTTN 211922Z 17007G17KT 10SM BKN029 OVC038 23/18 A3011 RMK AO2 T02330183 =
2018-09-21 14:53 METAR KTTN 211853Z 17010KT 10SM SCT026 OVC032 23/18 A3012 RMK AO2 SLP192
                 T02330178 =
2018-09-21 14:26 METAR KTTN 211826Z 18010KT 10SM OVC028 23/18 A3013 RMK AO2 T02330178 =
2018-09-21 14:06 METAR KTTN 211806Z 18009KT 10SM FEW025 BKN031 OVC038 24/18 A3014 RMK AO2
                 T02390183 =
2018-09-21 13:53 METAR KTTN 211753Z 20011G18KT 10SM BKN025 OVC038 24/18 A3015 RMK AO2 SLP202
                 T02390178 10239 20194 58025 =
2018-09-21 13:19 METAR KTTN 211719Z 19010KT 10SM BKN025 OVC042 23/18 A3016 RMK AO2 T02280178 =
2018-09-21 12:53 METAR KTTN 211653Z 18011KT 10SM FEW023 OVC040 23/18 A3018 RMK AO2 SLP211
                 T02280178 =
2018-09-21 11:53 METAR KTTN 211553Z 18007KT 10SM SCT020 OVC039 22/17 A3020 RMK AO2 SLP220
                 T02170172 =
2018-09-21 10:53 METAR KTTN 211453Z 17009KT 10SM OVC040 21/17 A3022 RMK AO2 SLP227 T02110172
                 58010 =
2018-09-21 09:53 METAR KTTN 211353Z 17006KT 10SM OVC040 21/17 A3024 RMK AO2 SLP233 T02060167 =

Support USWX by starting your Amazon purchase here.